Time;durP1;ratioP1;P1;durP2;ratioP2;P2;SDS_P1;SDS_P2;PMS_P1;PMS_P2;Temp;Humidity;BMP_temperature;BMP_pressure;BME280_temperature;BME280_humidity;BME280_pressure;Samples;Min_cycle;Max_cycle;Signal;HPM_P1;HPM_P2
2023/08/25 00:00:05;;;;;;;9.13;5.78;;;;;;;21.21;100.00;100803.34;4817109;29;20061;-67
2023/08/25 00:02:40;;;;;;;11.88;6.47;;;;;;;21.21;100.00;100808.03;4793817;29;20062;-67
2023/08/25 00:05:09;;;;;;;9.50;6.07;;;;;;;21.19;100.00;100810.34;4794151;29;20065;-66
2023/08/25 00:07:37;;;;;;;8.70;5.40;;;;;;;21.23;100.00;100811.28;4810084;29;20064;-67
2023/08/25 00:10:06;;;;;;;9.50;6.00;;;;;;;21.26;100.00;100799.50;4807233;29;20050;-69
2023/08/25 00:12:35;;;;;;;13.75;6.43;;;;;;;21.30;100.00;100806.00;4808305;29;20047;-67
2023/08/25 00:15:04;;;;;;;9.77;5.47;;;;;;;21.32;100.00;100809.25;4809820;29;20510;-67
2023/08/25 00:17:32;;;;;;;10.15;6.25;;;;;;;21.34;100.00;100822.78;4793588;29;20103;-67
2023/08/25 00:20:01;;;;;;;9.32;5.90;;;;;;;21.33;100.00;100818.38;4809059;29;20509;-69
2023/08/25 00:22:29;;;;;;;12.20;7.18;;;;;;;21.33;100.00;100821.13;4809436;29;20051;-67
2023/08/25 00:24:57;;;;;;;14.80;7.72;;;;;;;21.30;100.00;100816.28;4792940;29;20529;-67
2023/08/25 00:27:24;;;;;;;17.25;7.22;;;;;;;21.23;100.00;100814.88;4809295;29;20062;-66
2023/08/25 00:29:53;;;;;;;15.05;7.07;;;;;;;21.19;100.00;100816.72;4780158;29;20054;-68
2023/08/25 00:32:21;;;;;;;10.55;6.75;;;;;;;21.19;100.00;100825.03;4793309;29;20058;-67
2023/08/25 00:34:49;;;;;;;11.85;7.18;;;;;;;21.17;100.00;100819.00;4808556;29;20066;-68
2023/08/25 00:37:17;;;;;;;11.57;7.75;;;;;;;21.14;100.00;100825.25;4795679;29;20055;-67
2023/08/25 00:39:45;;;;;;;11.00;6.55;;;;;;;21.14;100.00;100822.47;4808562;29;20059;-68
2023/08/25 00:42:13;;;;;;;10.35;6.70;;;;;;;21.16;100.00;100817.38;4809380;29;20047;-68
2023/08/25 00:44:44;;;;;;;13.35;7.40;;;;;;;21.15;100.00;100824.06;4793404;29;20401;-67
2023/08/25 00:47:12;;;;;;;11.00;6.95;;;;;;;21.15;100.00;100826.84;4808332;29;20069;-67
2023/08/25 00:49:41;;;;;;;11.20;6.30;;;;;;;21.16;100.00;100824.88;4810583;29;20062;-67
2023/08/25 00:52:10;;;;;;;11.30;6.78;;;;;;;21.16;100.00;100820.16;4809113;29;20054;-67
2023/08/25 00:54:38;;;;;;;11.85;7.07;;;;;;;21.15;100.00;100815.75;4807743;29;20489;-67
2023/08/25 00:57:06;;;;;;;12.40;7.75;;;;;;;21.14;100.00;100825.25;4795393;29;20059;-67
2023/08/25 00:59:35;;;;;;;11.75;8.05;;;;;;;21.10;100.00;100829.03;4793484;29;20061;-67
2023/08/25 01:02:04;;;;;;;9.45;6.15;;;;;;;21.04;100.00;100820.91;4792290;29;20043;-70
2023/08/25 01:04:34;;;;;;;8.63;6.25;;;;;;;21.03;100.00;100812.94;4791101;30;20497;-68
2023/08/25 01:07:02;;;;;;;10.70;6.03;;;;;;;21.04;100.00;100803.47;4760072;30;20413;-67
2023/08/25 01:09:30;;;;;;;11.27;6.68;;;;;;;21.05;100.00;100813.41;4791199;30;20067;-68
2023/08/25 01:12:04;;;;;;;12.02;6.43;;;;;;;20.99;100.00;100812.00;4789022;29;20047;-67
2023/08/25 01:15:00;;;;;;;9.93;6.20;;;;;;;20.98;100.00;100804.84;4787239;29;20144;-67
2023/08/25 01:17:35;;;;;;;11.35;7.03;;;;;;;20.97;100.00;100808.75;4795404;29;20401;-68
2023/08/25 01:20:07;;;;;;;11.52;7.45;;;;;;;20.93;100.00;100803.09;4808757;29;20062;-67
2023/08/25 01:23:16;;;;;;;10.45;6.95;;;;;;;20.92;100.00;100806.19;4798173;29;20047;-66
2023/08/25 01:25:45;;;;;;;10.05;6.90;;;;;;;20.92;100.00;100795.91;4808416;29;20062;-67
2023/08/25 01:28:13;;;;;;;12.02;7.03;;;;;;;20.90;100.00;100797.41;4809636;29;20050;-67
2023/08/25 01:30:41;;;;;;;11.65;7.10;;;;;;;20.85;100.00;100795.63;4792980;29;20492;-67
2023/08/25 01:33:10;;;;;;;9.93;6.88;;;;;;;20.84;100.00;100800.38;4808000;29;20086;-67
2023/08/25 01:36:07;;;;;;;9.15;6.07;;;;;;;20.84;100.00;100788.50;4806341;29;20065;-66
2023/08/25 01:39:00;;;;;;;10.00;5.78;;;;;;;20.87;100.00;100796.13;4799491;29;20488;-68
2023/08/25 01:41:49;;;;;;;9.57;5.88;;;;;;;20.89;100.00;100795.78;4808166;29;20059;-68
2023/08/25 01:44:19;;;;;;;10.48;5.70;;;;;;;20.89;100.00;100801.34;4798748;29;20053;-68
2023/08/25 01:47:01;;;;;;;9.23;6.45;;;;;;;20.87;100.00;100792.53;4806682;29;20070;-68
2023/08/25 01:49:30;;;;;;;10.48;7.00;;;;;;;20.84;100.00;100794.03;4803860;29;20050;-63
2023/08/25 01:51:59;;;;;;;10.45;6.78;;;;;;;20.80;100.00;100793.09;4812028;29;20058;-62
2023/08/25 01:54:27;;;;;;;11.00;7.25;;;;;;;20.78;100.00;100795.38;4815373;29;20055;-60
2023/08/25 01:56:55;;;;;;;10.60;6.80;;;;;;;20.76;100.00;100790.19;4807857;30;20089;-61
2023/08/25 01:59:22;;;;;;;10.35;6.25;;;;;;;20.74;100.00;100786.13;4784323;30;20548;-65
2023/08/25 02:01:50;;;;;;;8.98;6.03;;;;;;;20.73;100.00;100793.63;4762036;30;20051;-65
2023/08/25 02:04:18;;;;;;;13.00;7.20;;;;;;;20.76;100.00;100787.41;4805166;29;20547;-66
2023/08/25 02:06:46;;;;;;;10.30;6.43;;;;;;;20.76;100.00;100776.34;4820634;29;20058;-59
2023/08/25 02:09:14;;;;;;;10.48;6.88;;;;;;;20.75;100.00;100785.78;4824187;29;20081;-68
2023/08/25 02:11:42;;;;;;;10.25;7.63;;;;;;;20.71;100.00;100789.56;4826317;29;20492;-67
2023/08/25 02:14:18;;;;;;;;;;;;;;;20.65;100.00;100786.19;4810148;29;20067;-67
2023/08/25 02:16:45;;;;;;;8.20;6.60;;;;;;;20.59;100.00;100766.22;4809859;29;19924;-67
2023/08/25 02:19:13;;;;;;;9.82;6.90;;;;;;;20.55;100.00;100770.78;4809570;29;20054;-67
2023/08/25 02:21:41;;;;;;;9.23;6.45;;;;;;;20.54;100.00;100762.78;4798010;29;20108;-67
2023/08/25 02:24:09;;;;;;;10.88;7.57;;;;;;;20.55;100.00;100764.44;4815307;29;20057;-68
2023/08/25 02:26:36;;;;;;;11.13;7.43;;;;;;;20.55;100.00;100758.91;4791981;29;20415;-66
2023/08/25 02:29:06;;;;;;;12.35;8.77;;;;;;;20.56;100.00;100768.84;4808116;29;20047;-66
2023/08/25 02:31:34;;;;;;;9.93;7.03;;;;;;;20.54;100.00;100768.31;4807273;29;20069;-66
2023/08/25 02:34:02;;;;;;;9.43;6.30;;;;;;;20.57;100.00;100759.41;4796090;29;20054;-67
2023/08/25 02:36:29;;;;;;;14.32;8.48;;;;;;;20.61;100.00;100750.09;4806885;29;20802;-66
2023/08/25 02:38:57;;;;;;;15.05;7.50;;;;;;;20.63;100.00;100749.72;4797092;29;20062;-67
2023/08/25 02:41:25;;;;;;;11.18;8.30;;;;;;;20.63;100.00;100744.19;4806840;29;20055;-66
2023/08/25 02:43:53;;;;;;;14.85;8.43;;;;;;;20.63;100.00;100749.72;4792086;29;20042;-67
2023/08/25 02:46:20;;;;;;;13.25;9.25;;;;;;;20.59;100.00;100746.03;4807999;29;20070;-67
2023/08/25 02:48:48;;;;;;;11.18;8.00;;;;;;;20.55;100.00;100742.28;4791986;29;20043;-66
2023/08/25 02:51:16;;;;;;;15.65;9.55;;;;;;;20.53;100.00;100739.03;4807372;29;20047;-65
2023/08/25 02:53:44;;;;;;;11.68;8.15;;;;;;;20.50;100.00;100737.75;4791483;29;20107;-67
2023/08/25 02:56:11;;;;;;;12.20;8.50;;;;;;;20.49;100.00;100738.88;4805329;29;20061;-67
2023/08/25 02:58:39;;;;;;;13.05;8.93;;;;;;;20.50;100.00;100725.88;4773984;30;20494;-67
2023/08/25 03:01:11;;;;;;;15.43;9.07;;;;;;;20.50;100.00;100728.66;4803069;29;20046;-67
2023/08/25 03:03:40;;;;;;;13.32;9.48;;;;;;;20.49;100.00;100724.25;4807209;29;20397;-67
2023/08/25 03:06:08;;;;;;;10.60;7.68;;;;;;;20.48;100.00;100726.22;4790166;29;20110;-68
2023/08/25 03:08:36;;;;;;;11.07;7.82;;;;;;;20.52;100.00;100726.34;4806327;29;20054;-67
2023/08/25 03:11:04;;;;;;;11.57;8.38;;;;;;;20.55;100.00;100718.19;4790494;29;20055;-68
2023/08/25 03:13:32;;;;;;;15.35;11.30;;;;;;;20.58;100.00;100713.94;4796875;29;20696;-67
2023/08/25 03:16:02;;;;;;;12.25;9.35;;;;;;;20.57;100.00;100712.34;4794181;29;20111;-68
2023/08/25 03:18:31;;;;;;;12.52;9.32;;;;;;;20.53;100.00;100705.81;4794293;29;20144;-67
2023/08/25 03:21:00;;;;;;;10.45;7.95;;;;;;;20.52;100.00;100715.28;4794455;29;20063;-67
2023/08/25 03:23:28;;;;;;;11.77;9.45;;;;;;;20.51;100.00;100703.38;4794436;29;20489;-66
2023/08/25 03:25:56;;;;;;;11.82;9.35;;;;;;;20.50;100.00;100703.75;4797189;29;20061;-67
2023/08/25 03:28:24;;;;;;;13.05;9.55;;;;;;;20.49;100.00;100699.34;4794967;29;20058;-67
2023/08/25 03:30:52;;;;;;;12.98;9.45;;;;;;;20.49;100.00;100699.34;4794163;29;20496;-66
2023/08/25 03:33:23;;;;;;;13.88;10.63;;;;;;;20.47;100.00;100696.09;4794107;29;20058;-67
2023/08/25 03:35:51;;;;;;;15.00;10.48;;;;;;;20.45;100.00;100687.34;4802244;29;20115;-66
2023/08/25 03:38:20;;;;;;;13.27;10.48;;;;;;;20.41;100.00;100689.97;4812580;29;20408;-67
2023/08/25 03:40:47;;;;;;;13.88;10.15;;;;;;;20.38;100.00;100680.38;4808591;29;20484;-66
2023/08/25 03:43:15;;;;;;;13.45;9.32;;;;;;;20.39;100.00;100679.22;4794037;29;20055;-67
2023/08/25 03:45:43;;;;;;;13.20;10.18;;;;;;;20.42;100.00;100680.53;4796335;29;20062;-66
2023/08/25 03:48:12;;;;;;;13.13;9.27;;;;;;;20.42;100.00;100675.78;4780038;29;20407;-66
2023/08/25 03:50:40;;;;;;;13.82;10.60;;;;;;;20.42;100.00;100677.75;4809033;29;20046;-66
2023/08/25 03:53:07;;;;;;;12.80;9.25;;;;;;;20.39;100.00;100676.44;4808712;29;20058;-67
2023/08/25 03:55:35;;;;;;;14.02;11.35;;;;;;;20.39;100.00;100681.97;4785339;29;20054;-68
2023/08/25 03:58:03;;;;;;;16.52;10.93;;;;;;;20.39;100.00;100678.41;4792811;29;20062;-68
2023/08/25 04:00:31;;;;;;;14.02;10.82;;;;;;;20.36;100.00;100674.38;4821499;29;20069;-66
2023/08/25 04:02:59;;;;;;;17.42;12.25;;;;;;;20.36;100.00;100668.03;4798470;29;20043;-67
2023/08/25 04:05:27;;;;;;;16.25;10.73;;;;;;;20.35;100.00;100661.69;4793683;29;20058;-66
2023/08/25 04:07:56;;;;;;;11.60;8.95;;;;;;;20.37;100.00;100676.00;4792028;29;20051;-67
2023/08/25 04:10:24;;;;;;;14.43;9.35;;;;;;;20.40;100.00;100669.78;4791679;29;20407;-67
2023/08/25 04:12:52;;;;;;;14.02;11.40;;;;;;;20.43;100.00;100663.56;4774393;30;20481;-68
2023/08/25 04:15:21;;;;;;;14.80;11.60;;;;;;;20.42;100.00;100667.50;4802374;29;20061;-67
2023/08/25 04:17:49;;;;;;;15.02;11.90;;;;;;;20.43;100.00;100666.31;4793361;29;20061;-67
2023/08/25 04:20:17;;;;;;;14.68;11.93;;;;;;;20.44;100.00;100669.91;4797263;29;20054;-67
2023/08/25 04:22:44;;;;;;;15.10;11.25;;;;;;;20.42;100.00;100661.94;4792964;29;20054;-66
2023/08/25 04:25:12;;;;;;;13.50;9.63;;;;;;;20.41;100.00;100660.31;4804973;29;20515;-69
2023/08/25 04:27:40;;;;;;;14.98;11.77;;;;;;;20.42;100.00;100656.41;4799542;29;20577;-67
2023/08/25 04:30:08;;;;;;;18.05;13.18;;;;;;;20.42;100.00;100650.88;4793611;29;20059;-67
2023/08/25 04:32:37;;;;;;;15.50;11.63;;;;;;;20.39;100.00;100656.28;4778544;29;20063;-67
2023/08/25 04:35:07;;;;;;;12.00;9.25;;;;;;;20.39;100.00;100657.06;4778591;29;20047;-67
2023/08/25 04:37:37;;;;;;;19.13;11.82;;;;;;;20.41;100.00;100660.31;4781989;29;20062;-67
2023/08/25 04:40:05;;;;;;;13.00;10.23;;;;;;;20.41;100.00;100656.75;4807600;29;20107;-67
2023/08/25 04:42:34;;;;;;;18.13;13.52;;;;;;;20.42;100.00;100669.44;4793513;29;20107;-67
2023/08/25 04:45:05;;;;;;;18.02;11.20;;;;;;;20.39;100.00;100664.56;4789144;29;20062;-67
2023/08/25 04:47:33;;;;;;;16.20;12.48;;;;;;;20.38;100.00;100661.00;4791290;29;20059;-68
2023/08/25 04:50:02;;;;;;;14.73;10.93;;;;;;;20.38;100.00;100654.66;4790863;29;20181;-67
2023/08/25 04:52:30;;;;;;;13.88;10.45;;;;;;;20.41;100.00;100653.97;4775409;30;20051;-67
2023/08/25 04:55:00;;;;;;;16.98;11.27;;;;;;;20.43;100.00;100663.56;4791402;30;20055;-67
2023/08/25 04:57:28;;;;;;;14.85;12.00;;;;;;;20.43;100.00;100669.09;4805698;29;20054;-68
2023/08/25 04:59:57;;;;;;;16.83;14.02;;;;;;;20.45;100.00;100665.19;4806714;29;20428;-67
2023/08/25 05:02:28;;;;;;;14.52;11.07;;;;;;;20.46;100.00;100664.03;4793073;29;20229;-67
2023/08/25 05:04:58;;;;;;;15.63;12.05;;;;;;;20.48;100.00;100664.50;4792730;29;20404;-67
2023/08/25 05:07:27;;;;;;;16.27;13.32;;;;;;;20.50;100.00;100657.50;4801364;29;20062;-68
2023/08/25 05:09:54;;;;;;;17.55;10.90;;;;;;;20.50;100.00;100646.41;4784810;29;20103;-67
2023/08/25 05:12:22;;;;;;;14.25;11.50;;;;;;;20.50;100.00;100656.69;4807217;29;20050;-68
2023/08/25 05:14:50;;;;;;;12.32;10.23;;;;;;;20.49;100.00;100643.97;4815306;29;20128;-67
2023/08/25 05:17:18;;;;;;;13.75;10.73;;;;;;;20.53;100.00;100644.94;4780700;29;20126;-67
2023/08/25 05:19:49;;;;;;;18.52;11.88;;;;;;;20.54;100.00;100641.00;4797162;29;20062;-68
2023/08/25 05:22:18;;;;;;;15.90;11.82;;;;;;;20.54;100.00;100636.28;4806874;29;20411;-69
2023/08/25 05:24:47;;;;;;;14.80;11.50;;;;;;;20.55;100.00;100639.88;4784730;29;20103;-68
2023/08/25 05:27:14;;;;;;;13.60;11.23;;;;;;;20.57;100.00;100634.84;4792210;29;20062;-68
2023/08/25 05:29:42;;;;;;;16.00;12.02;;;;;;;20.57;100.00;100626.53;4800521;29;20392;-68
2023/08/25 05:32:30;;;;;;;16.48;11.55;;;;;;;20.57;100.00;100634.84;4781902;29;20074;-68
2023/08/25 05:35:21;;;;;;;15.70;11.93;;;;;;;20.57;100.00;100637.59;4807066;29;20062;-67
2023/08/25 05:37:50;;;;;;;14.00;12.00;;;;;;;20.56;100.00;100624.88;4798092;29;20063;-68
2023/08/25 05:40:18;;;;;;;15.50;12.02;;;;;;;20.58;100.00;100642.78;4791475;29;20407;-69
2023/08/25 05:42:47;;;;;;;12.95;11.18;;;;;;;20.61;100.00;100641.28;4805398;29;20051;-67
2023/08/25 05:45:15;;;;;;;15.88;13.07;;;;;;;20.61;100.00;100630.22;4807974;29;20047;-68
2023/08/25 05:47:53;;;;;;;15.88;12.35;;;;;;;20.60;100.00;100623.06;4453600;29;10001225;-68
2023/08/25 05:50:22;;;;;;;15.23;11.23;;;;;;;20.62;100.00;100634.63;4796342;29;20261;-68
2023/08/25 05:52:53;;;;;;;16.20;12.32;;;;;;;20.66;100.00;100632.78;4792286;29;20061;-70
2023/08/25 05:55:22;;;;;;;16.08;11.55;;;;;;;20.66;100.00;100627.25;4791925;29;20058;-69
2023/08/25 05:57:50;;;;;;;21.27;14.77;;;;;;;20.64;100.00;100630.34;4808815;29;20527;-68
2023/08/25 06:00:18;;;;;;;15.50;11.48;;;;;;;20.63;100.00;100627.91;4804532;29;20086;-69
2023/08/25 06:02:47;;;;;;;16.50;14.18;;;;;;;20.60;100.00;100625.84;4786525;29;20046;-68
2023/08/25 06:05:15;;;;;;;18.17;14.38;;;;;;;20.61;100.00;100619.97;4776331;29;20066;-70
2023/08/25 06:07:43;;;;;;;19.67;13.90;;;;;;;20.60;100.00;100609.22;4801821;29;20722;-69
2023/08/25 06:10:11;;;;;;;17.85;14.32;;;;;;;20.59;100.00;100627.81;4804266;29;20106;-66
2023/08/25 06:12:38;;;;;;;15.02;12.55;;;;;;;20.59;100.00;100627.00;4803819;29;20084;-68
2023/08/25 06:15:07;;;;;;;16.35;12.18;;;;;;;20.60;100.00;100623.88;4796794;29;20058;-70
2023/08/25 06:17:34;;;;;;;17.45;12.93;;;;;;;20.61;100.00;100624.69;4805383;29;20058;-70
2023/08/25 06:20:03;;;;;;;17.90;13.82;;;;;;;20.59;100.00;100627.81;4791509;29;20062;-70
2023/08/25 06:22:30;;;;;;;20.67;17.00;;;;;;;;;;4800461;29;20046;-69
2023/08/25 06:24:58;;;;;;;20.17;15.90;;;;;;;20.54;100.00;100633.53;4797399;29;20051;-67
2023/08/25 06:27:26;;;;;;;20.00;17.65;;;;;;;20.52;100.00;100630.28;4821464;29;20054;-64
2023/08/25 06:29:54;;;;;;;19.00;13.68;;;;;;;20.50;100.00;100648.38;4827743;29;20051;-63
2023/08/25 06:32:23;;;;;;;17.42;13.85;;;;;;;20.50;100.00;100645.63;4823895;29;20058;-69
2023/08/25 06:34:53;;;;;;;17.52;13.68;;;;;;;20.50;100.00;100657.50;4811946;29;20243;-67
2023/08/25 06:37:21;;;;;;;17.15;13.82;;;;;;;20.53;100.00;100678.13;4820379;29;20054;-60
2023/08/25 06:39:48;;;;;;;20.80;17.05;;;;;;;20.50;100.00;100657.50;4821617;29;20099;-59
2023/08/25 06:42:16;;;;;;;18.23;14.68;;;;;;;20.48;100.00;100657.00;4823509;29;20051;-64
2023/08/25 06:44:44;;;;;;;20.83;14.95;;;;;;;20.47;100.00;100647.09;4799117;29;20125;-67
2023/08/25 06:47:12;;;;;;;24.05;15.43;;;;;;;20.44;100.00;100628.38;4793685;29;20525;-68
2023/08/25 06:49:40;;;;;;;15.68;13.20;;;;;;;20.41;100.00;100621.56;4816245;29;20126;-66
2023/08/25 06:52:07;;;;;;;18.08;14.48;;;;;;;20.45;100.00;100632.78;4824021;29;20070;-68
2023/08/25 06:54:35;;;;;;;19.65;14.85;;;;;;;20.48;100.00;100631.28;4777001;29;20054;-68
2023/08/25 06:57:03;;;;;;;18.85;14.23;;;;;;;20.47;100.00;100641.56;4807857;29;20055;-67
2023/08/25 06:59:31;;;;;;;20.23;15.55;;;;;;;20.43;100.00;100646.97;4791566;29;20070;-66
2023/08/25 07:01:58;;;;;;;21.75;16.58;;;;;;;20.42;100.00;100659.19;4791224;29;20467;-67
2023/08/25 07:04:26;;;;;;;22.20;17.30;;;;;;;20.38;100.00;100647.16;4791464;29;20055;-68
2023/08/25 07:06:54;;;;;;;25.73;17.80;;;;;;;20.31;100.00;100616.47;4790697;29;20458;-67
2023/08/25 07:09:22;;;;;;;22.38;16.00;;;;;;;20.22;100.00;100585.28;4791422;29;20050;-68
2023/08/25 07:11:50;;;;;;;52.05;20.63;;;;;;;20.21;100.00;100569.84;4807428;29;20047;-68
2023/08/25 07:14:18;;;;;;;26.08;15.30;;;;;;;20.24;100.00;100565.59;4791640;29;20050;-68
2023/08/25 07:16:45;;;;;;;17.73;14.35;;;;;;;20.28;100.00;100561.81;4811233;29;20047;-68
2023/08/25 07:19:16;;;;;;;22.83;14.10;;;;;;;20.33;100.00;100569.09;4807442;29;20065;-69
2023/08/25 07:21:44;;;;;;;20.23;14.85;;;;;;;20.35;100.00;100573.13;4790734;29;20107;-67
2023/08/25 07:24:12;;;;;;;18.27;14.52;;;;;;;20.31;100.00;100583.25;4824427;29;20122;-68
2023/08/25 07:26:40;;;;;;;18.80;14.88;;;;;;;20.28;100.00;100581.19;4818799;29;20055;-69
2023/08/25 07:29:09;;;;;;;17.63;13.82;;;;;;;20.30;100.00;100578.88;4807146;29;20057;-68
2023/08/25 07:31:37;;;;;;;18.33;13.40;;;;;;;20.32;100.00;100584.88;4790598;29;20063;-68
2023/08/25 07:34:04;;;;;;;20.10;16.13;;;;;;;20.34;100.00;100582.56;4790987;29;20058;-68
2023/08/25 07:36:32;;;;;;;16.25;13.00;;;;;;;20.31;100.00;100610.94;4791225;29;20107;-69
2023/08/25 07:39:00;;;;;;;16.85;12.48;;;;;;;20.32;100.00;100622.81;4806279;29;20058;-68
2023/08/25 07:41:28;;;;;;;14.40;11.82;;;;;;;20.33;100.00;100628.00;4791239;29;20103;-68
2023/08/25 07:43:56;;;;;;;16.92;12.48;;;;;;;20.35;100.00;100622.94;4824438;29;20055;-68
2023/08/25 07:46:24;;;;;;;15.55;13.05;;;;;;;20.38;100.00;100621.47;4824734;29;20061;-69
2023/08/25 07:48:51;;;;;;;19.45;13.00;;;;;;;20.39;100.00;100646.00;4814758;29;20059;-68
2023/08/25 07:51:20;;;;;;;19.75;12.35;;;;;;;20.39;100.00;100657.06;4782624;29;20092;-69
2023/08/25 07:54:06;;;;;;;17.85;13.00;;;;;;;20.42;100.00;100611.34;4807014;29;20059;-68
2023/08/25 07:56:34;;;;;;;17.63;12.30;;;;;;;20.39;100.00;100590.66;4777934;29;20070;-67
2023/08/25 07:59:03;;;;;;;19.65;12.57;;;;;;;20.32;100.00;100593.16;4805425;29;20489;-68
2023/08/25 08:01:31;;;;;;;17.33;11.70;;;;;;;20.31;100.00;100666.28;4789373;29;20073;-67
2023/08/25 08:03:59;;;;;;;13.48;10.52;;;;;;;20.34;100.00;100670.31;4826195;29;20135;-69
2023/08/25 08:06:27;;;;;;;14.85;11.80;;;;;;;20.36;100.00;100660.53;4821151;29;20046;-68
2023/08/25 08:08:55;;;;;;;13.90;10.32;;;;;;;20.33;100.00;100649.34;4793527;29;20051;-68
2023/08/25 08:11:23;;;;;;;14.43;10.48;;;;;;;20.31;100.00;100641.38;4808956;29;20055;-68
2023/08/25 08:13:51;;;;;;;12.65;9.55;;;;;;;20.32;100.00;100645.75;4809559;29;20054;-67
2023/08/25 08:16:19;;;;;;;14.35;9.40;;;;;;;20.36;100.00;100659.72;4792969;29;20054;-68
2023/08/25 08:18:47;;;;;;;12.30;8.95;;;;;;;20.38;100.00;100677.59;4792225;29;20066;-68
2023/08/25 08:21:14;;;;;;;11.43;9.00;;;;;;;20.40;100.00;100660.69;4779700;29;20061;-68
2023/08/25 08:23:42;;;;;;;11.45;9.18;;;;;;;20.43;100.00;100651.69;4794686;29;20047;-67
2023/08/25 08:26:10;;;;;;;14.18;9.13;;;;;;;20.44;100.00;100669.91;4810353;29;20058;-68
2023/08/25 08:28:38;;;;;;;11.35;8.80;;;;;;;20.45;100.00;100671.53;4808930;29;20055;-68
2023/08/25 08:31:05;;;;;;;12.30;8.07;;;;;;;20.47;100.00;100652.63;4809352;29;20050;-67
2023/08/25 08:33:35;;;;;;;11.85;8.88;;;;;;;20.47;100.00;100646.28;4793619;29;20170;-68
2023/08/25 08:36:03;;;;;;;12.45;8.05;;;;;;;20.47;100.00;100638.81;4794096;29;20042;-68
2023/08/25 08:38:33;;;;;;;11.18;8.50;;;;;;;20.48;100.00;100642.38;4808113;29;20053;-67
2023/08/25 08:41:04;;;;;;;10.60;7.97;;;;;;;20.47;100.00;100638.81;4808453;29;20081;-66
2023/08/25 08:43:38;;;;;;;12.27;7.95;;;;;;;20.45;100.00;100627.25;4779071;29;20046;-66
2023/08/25 08:46:07;;;;;;;10.13;7.38;;;;;;;20.43;100.00;100646.97;4792884;29;20059;-68
2023/08/25 08:48:36;;;;;;;12.13;6.57;;;;;;;20.45;100.00;100634.75;4777450;29;20064;-68
2023/08/25 08:51:05;;;;;;;9.80;6.82;;;;;;;20.45;100.00;100649.41;4808622;29;20055;-66
2023/08/25 08:53:33;;;;;;;9.68;6.15;;;;;;;20.47;100.00;100663.72;4809705;29;20053;-66
2023/08/25 08:56:01;;;;;;;9.77;6.43;;;;;;;20.48;100.00;100664.50;4809147;29;20059;-67
2023/08/25 08:58:29;;;;;;;10.90;6.30;;;;;;;20.47;100.00;100660.94;4808630;29;20055;-67
2023/08/25 09:00:57;;;;;;;9.43;6.40;;;;;;;20.47;100.00;100660.09;4791931;29;20058;-67
2023/08/25 09:03:34;;;;;;;9.40;5.63;;;;;;;20.46;100.00;100651.00;4780673;29;20107;-68
2023/08/25 09:06:03;;;;;;;10.18;5.82;;;;;;;20.46;100.00;100652.97;4791415;29;20565;-68
2023/08/25 09:08:31;;;;;;;8.90;5.53;;;;;;;20.44;100.00;100664.38;4809170;29;20099;-68
2023/08/25 09:11:02;;;;;;;7.78;5.22;;;;;;;20.41;100.00;100665.84;4809864;29;20191;-67
2023/08/25 09:13:36;;;;;;;8.48;5.05;;;;;;;20.41;100.00;100665.84;4809267;29;20050;-66
2023/08/25 09:16:12;;;;;;;6.75;4.47;;;;;;;20.42;100.00;100669.44;4808603;29;20051;-67
2023/08/25 09:18:40;;;;;;;8.63;5.00;;;;;;;20.45;100.00;100667.97;4798081;29;20496;-67
2023/08/25 09:21:20;;;;;;;7.10;4.90;;;;;;;20.45;100.00;100643.06;4792803;29;20501;-67
2023/08/25 09:23:54;;;;;;;7.10;4.72;;;;;;;20.42;100.00;100636.25;4793041;29;20062;-68
2023/08/25 09:26:24;;;;;;;8.98;4.63;;;;;;;20.41;100.00;100649.25;4792566;29;20051;-67
2023/08/25 09:28:58;;;;;;;7.10;4.28;;;;;;;20.42;100.00;100656.41;4790338;29;20051;-68
2023/08/25 09:31:28;;;;;;;8.55;5.05;;;;;;;20.43;100.00;100648.91;4794713;29;20047;-68
2023/08/25 09:34:02;;;;;;;7.47;4.53;;;;;;;20.42;100.00;100645.34;4810346;29;20058;-68
2023/08/25 09:36:31;;;;;;;7.82;5.30;;;;;;;20.43;100.00;100632.31;4810147;29;20050;-68
2023/08/25 09:39:00;;;;;;;6.70;4.15;;;;;;;20.43;100.00;100624.00;4803410;29;20046;-68
2023/08/25 09:41:34;;;;;;;10.25;5.10;;;;;;;20.46;100.00;100622.53;4797966;29;20548;-67
2023/08/25 09:44:03;;;;;;;8.20;5.32;;;;;;;20.45;100.00;100629.22;4808276;29;20058;-67
2023/08/25 09:46:32;;;;;;;7.85;5.35;;;;;;;20.43;100.00;100618.47;4808117;29;20065;-65
2023/08/25 09:49:08;;;;;;;11.82;5.28;;;;;;;20.42;100.00;100620.44;4797788;29;20066;-68
2023/08/25 09:51:37;;;;;;;;;;;;;;;20.42;100.00;100631.50;4809717;29;20055;-68
2023/08/25 09:54:12;;;;;;;10.32;4.85;;;;;;;20.43;100.00;100633.13;4806969;29;19936;-68
2023/08/25 09:56:41;;;;;;;7.70;5.15;;;;;;;20.46;100.00;100639.13;4797028;29;20078;-67
2023/08/25 09:59:10;;;;;;;8.57;5.80;;;;;;;20.50;100.00;100634.53;4806638;29;20061;-68
2023/08/25 10:01:43;;;;;;;8.13;5.35;;;;;;;20.51;100.00;100630.59;4790531;29;20496;-68
2023/08/25 10:04:13;;;;;;;9.13;5.20;;;;;;;20.52;100.00;100643.31;4773382;30;20051;-68
2023/08/25 10:06:41;;;;;;;8.45;5.40;;;;;;;20.52;100.00;100644.13;4807262;29;20047;-68
2023/08/25 10:09:09;;;;;;;8.20;5.50;;;;;;;20.52;100.00;100649.66;4809897;29;20057;-68
2023/08/25 10:11:43;;;;;;;9.80;5.95;;;;;;;20.53;100.00;100650.47;4807215;29;20062;-68
2023/08/25 10:14:12;;;;;;;9.50;5.88;;;;;;;20.52;100.00;100649.66;4773046;30;20424;-68
2023/08/25 10:16:50;;;;;;;8.13;5.45;;;;;;;20.58;100.00;100645.53;4806849;29;20085;-65
2023/08/25 10:19:28;;;;;;;9.35;5.43;;;;;;;20.71;100.00;100645.59;4809842;29;20050;-67
2023/08/25 10:22:01;;;;;;;9.68;5.82;;;;;;;20.75;100.00;100641.00;4796963;29;20055;-66
2023/08/25 10:24:30;;;;;;;9.45;5.95;;;;;;;20.73;100.00;100649.63;4836122;29;20087;-69
2023/08/25 10:26:58;;;;;;;9.00;5.80;;;;;;;20.71;100.00;100657.50;4839107;29;20099;-66
2023/08/25 10:29:26;;;;;;;11.20;5.50;;;;;;;20.70;100.00;100657.81;4819243;29;20931;-67
2023/08/25 10:32:02;;;;;;;7.60;4.93;;;;;;;20.70;100.00;100661.41;4825322;29;20050;-67
2023/08/25 10:34:36;;;;;;;19.55;12.00;;;;;;;20.70;100.00;100661.41;4175614;29;10003125;-68
2023/08/25 10:37:10;;;;;;;25.10;17.00;;;;;;;20.70;100.00;100661.41;4807624;29;20268;-66
2023/08/25 10:39:52;;;;;;;22.45;14.88;;;;;;;20.71;100.00;100663.03;4802664;29;20192;-68
2023/08/25 10:42:31;;;;;;;24.70;16.45;;;;;;;20.73;100.00;100660.69;4785562;30;20055;-67
2023/08/25 10:45:10;;;;;;;88.47;51.85;;;;;;;20.75;100.00;100660.38;4799256;29;20496;-67
2023/08/25 10:47:44;;;;;;;28.52;17.50;;;;;;;20.74;100.00;100658.78;4803955;29;20420;-67
2023/08/25 10:50:13;;;;;;;80.28;42.17;;;;;;;20.72;100.00;100650.78;4802877;29;20047;-68
2023/08/25 10:52:43;;;;;;;30.60;18.70;;;;;;;20.71;100.00;100653.88;4802305;29;20063;-67
2023/08/25 10:55:32;;;;;;;40.22;25.70;;;;;;;20.69;100.00;100659.78;4805149;29;20051;-67
2023/08/25 10:58:05;;;;;;;35.03;21.83;;;;;;;20.71;100.00;100656.66;4791442;29;20062;-66
2023/08/25 11:00:34;;;;;;;16.30;11.27;;;;;;;20.71;100.00;100663.03;4814285;29;20134;-63
2023/08/25 11:03:02;;;;;;;40.47;24.20;;;;;;;20.72;100.00;100670.19;4807384;29;21914;-65
2023/08/25 11:05:38;;;;;;;19.40;12.48;;;;;;;20.71;100.00;100663.03;4803880;29;20073;-66
2023/08/25 11:08:25;;;;;;;25.73;15.98;;;;;;;20.74;100.00;100667.88;4800097;29;20512;-67
2023/08/25 11:11:11;;;;;;;14.98;9.82;;;;;;;20.76;100.00;100656.47;4805844;29;20062;-64
2023/08/25 11:13:39;;;;;;;;;;;;;;;20.73;100.00;100652.41;4820210;29;20046;-62
2023/08/25 11:16:11;;;;;;;13.27;8.63;;;;;;;20.74;100.00;100656.81;4821653;29;19956;-64
2023/08/25 11:18:43;;;;;;;11.15;8.15;;;;;;;20.74;100.00;100661.53;4805063;29;20055;-63
2023/08/25 11:21:11;;;;;;;19.73;11.80;;;;;;;20.74;100.00;100647.69;4808010;29;20059;-66